EZY12TR EGKK-LMML
Flight info
| Callsign | EZY12TR |
|---|---|
| Flight time | N/A |
| Altitude | 35000 |
| Route | SFD Y47 BENBO L612 HAWKE UL612 OGULO DCT OKASI DCT OKEKO DCT MOU DCT MADIV DCT MOKIP DCT TUFTA DCT KOGAS DCT MEDAM DCT NITAM DCT MOGBO DCT BAKRO DCT RONAB DCT GIANO DCT MARON DCT EKOLA L12 GZO |
| Aircraft | A320/M-SDE2E3FGHIRWXY/LB1 |
Departure
| Time | 2026-05-07 15:34 |
|---|---|
| Airport | London Gatwick Airport (EGKK) |
Arrival
| Time | N/A |
|---|---|
| Airport | Malta International Airport (LMML) |
| Time | Latitude | Longitude | Altitude | Speed | Heading |
|---|---|---|---|---|---|
| 2026-05-07 14:51 | 51.15883 | -0.17314 | 213 ft | 0 kts | 347° |
| 2026-05-07 15:21 | 51.15873 | -0.17310 | 214 ft | 4 kts | 347° |
| 2026-05-07 15:21 | 51.15847 | -0.17301 | 207 ft | 4 kts | 347° |
| 2026-05-07 15:21 | 51.15826 | -0.17293 | 207 ft | 3 kts | 347° |
| 2026-05-07 15:21 | 51.15803 | -0.17279 | 214 ft | 4 kts | 309° |
| 2026-05-07 15:22 | 51.15797 | -0.17247 | 211 ft | 3 kts | 257° |
| 2026-05-07 15:22 | 51.15800 | -0.17222 | 210 ft | 0 kts | 257° |
| 2026-05-07 15:24 | 51.15798 | -0.17241 | 216 ft | 6 kts | 257° |
| 2026-05-07 15:24 | 51.15781 | -0.17355 | 204 ft | 12 kts | 258° |
| 2026-05-07 15:25 | 51.15758 | -0.17480 | 214 ft | 11 kts | 232° |
| 2026-05-07 15:25 | 51.15688 | -0.17487 | 204 ft | 11 kts | 168° |
| 2026-05-07 15:25 | 51.15611 | -0.17461 | 204 ft | 11 kts | 162° |
| 2026-05-07 15:25 | 51.15588 | -0.17351 | 212 ft | 11 kts | 108° |
| 2026-05-07 15:26 | 51.15521 | -0.17304 | 208 ft | 11 kts | 169° |
| 2026-05-07 15:26 | 51.15464 | -0.17364 | 208 ft | 11 kts | 249° |
| 2026-05-07 15:26 | 51.15420 | -0.17394 | 208 ft | 0 kts | 168° |
| 2026-05-07 15:26 | 51.15410 | -0.17390 | 204 ft | 5 kts | 169° |
| 2026-05-07 15:27 | 51.15354 | -0.17373 | 207 ft | 11 kts | 167° |
| 2026-05-07 15:27 | 51.15299 | -0.17432 | 212 ft | 11 kts | 256° |
| 2026-05-07 15:27 | 51.15285 | -0.17562 | 207 ft | 12 kts | 257° |
| 2026-05-07 15:27 | 51.15266 | -0.17700 | 204 ft | 13 kts | 257° |
| 2026-05-07 15:28 | 51.15247 | -0.17838 | 207 ft | 13 kts | 257° |
| 2026-05-07 15:28 | 51.15227 | -0.17982 | 212 ft | 14 kts | 258° |
| 2026-05-07 15:28 | 51.15207 | -0.18132 | 204 ft | 14 kts | 258° |
| 2026-05-07 15:28 | 51.15189 | -0.18289 | 209 ft | 15 kts | 259° |
| 2026-05-07 15:29 | 51.15165 | -0.18479 | 210 ft | 19 kts | 257° |
| 2026-05-07 15:29 | 51.15138 | -0.18676 | 206 ft | 18 kts | 258° |
| 2026-05-07 15:29 | 51.15111 | -0.18868 | 212 ft | 17 kts | 257° |
| 2026-05-07 15:29 | 51.15087 | -0.19039 | 213 ft | 15 kts | 257° |
| 2026-05-07 15:30 | 51.15066 | -0.19187 | 206 ft | 13 kts | 257° |
| 2026-05-07 15:30 | 51.15049 | -0.19315 | 207 ft | 12 kts | 257° |
| 2026-05-07 15:30 | 51.15024 | -0.19493 | 209 ft | 21 kts | 258° |
| 2026-05-07 15:30 | 51.14992 | -0.19733 | 207 ft | 23 kts | 257° |
| 2026-05-07 15:31 | 51.14954 | -0.20003 | 214 ft | 26 kts | 257° |
| 2026-05-07 15:31 | 51.14913 | -0.20297 | 214 ft | 28 kts | 258° |
| 2026-05-07 15:31 | 51.14874 | -0.20584 | 209 ft | 24 kts | 257° |
| 2026-05-07 15:31 | 51.14836 | -0.20853 | 209 ft | 26 kts | 257° |
| 2026-05-07 15:32 | 51.14796 | -0.21131 | 214 ft | 12 kts | 243° |
| 2026-05-07 15:32 | 51.14770 | -0.21276 | 204 ft | 15 kts | 257° |
| 2026-05-07 15:32 | 51.14683 | -0.21349 | 204 ft | 16 kts | 180° |
| 2026-05-07 15:32 | 51.14566 | -0.21304 | 207 ft | 18 kts | 157° |
| 2026-05-07 15:33 | 51.14519 | -0.21175 | 208 ft | 1 kts | 79° |
| 2026-05-07 15:33 | 51.14523 | -0.21145 | 202 ft | 12 kts | 79° |
| 2026-05-07 15:33 | 51.14596 | -0.20616 | 207 ft | 85 kts | 78° |
| 2026-05-07 15:33 | 51.14767 | -0.19378 | 205 ft | 141 kts | 78° |
| 2026-05-07 15:34 | 51.14985 | -0.17698 | 599 ft | 155 kts | 82° |
| 2026-05-07 15:34 | 51.15206 | -0.16007 | 1343 ft | 159 kts | 80° |
| 2026-05-07 15:34 | 51.15456 | -0.14185 | 1718 ft | 179 kts | 81° |
| 2026-05-07 15:34 | 51.15741 | -0.12127 | 1971 ft | 201 kts | 79° |
| 2026-05-07 15:35 | 51.16052 | -0.09894 | 2478 ft | 209 kts | 80° |
| 2026-05-07 15:35 | 51.16117 | -0.07605 | 3099 ft | 209 kts | 108° |
| 2026-05-07 15:35 | 51.15307 | -0.05746 | 3694 ft | 209 kts | 147° |
| 2026-05-07 15:35 | 51.13941 | -0.04961 | 4121 ft | 210 kts | 167° |
| 2026-05-07 15:36 | 51.12485 | -0.04471 | 4502 ft | 221 kts | 168° |
| 2026-05-07 15:36 | 51.10935 | -0.03976 | 4897 ft | 241 kts | 168° |
| 2026-05-07 15:36 | 51.09184 | -0.03400 | 5157 ft | 262 kts | 166° |
| 2026-05-07 15:36 | 51.07400 | -0.02658 | 5417 ft | 267 kts | 163° |
| 2026-05-07 15:37 | 51.05608 | -0.01816 | 5706 ft | 271 kts | 162° |
| 2026-05-07 15:37 | 51.03825 | -0.00943 | 6530 ft | 272 kts | 162° |
| 2026-05-07 15:37 | 51.02010 | -0.00053 | 7364 ft | 273 kts | 163° |